createdAt,value
2019-02-18T00:02:10.671Z,39.50
2019-02-18T00:04:57.206Z,39.40
2019-02-18T00:07:43.654Z,39.40
2019-02-18T00:10:29.832Z,39.30
2019-02-18T00:13:17.315Z,39.30
2019-02-18T00:16:05.997Z,39.20
2019-02-18T00:18:52.181Z,39.20
2019-02-18T00:21:38.707Z,39.20
2019-02-18T00:24:25.126Z,39.20
2019-02-18T00:27:11.564Z,39.10
2019-02-18T00:29:57.875Z,39.10
2019-02-18T00:32:44.581Z,39.10
2019-02-18T00:35:30.950Z,39.10
2019-02-18T00:38:17.419Z,39.10
2019-02-18T00:41:03.742Z,39.20
2019-02-18T00:43:50.553Z,39.10
2019-02-18T00:46:37.015Z,39.10
2019-02-18T00:49:23.992Z,39.00
2019-02-18T00:52:10.348Z,39.10
2019-02-18T00:54:56.797Z,39.10
2019-02-18T00:57:42.944Z,39.10
2019-02-18T01:00:28.907Z,39.10
2019-02-18T01:03:15.256Z,39.00
2019-02-18T01:06:01.679Z,39.10
2019-02-18T01:08:48.027Z,39.10
2019-02-18T01:11:34.391Z,39.10
2019-02-18T01:14:20.731Z,39.10
2019-02-18T01:17:07.200Z,39.10
2019-02-18T01:19:53.659Z,39.10
2019-02-18T01:22:39.706Z,39.10
2019-02-18T01:25:25.976Z,39.10
2019-02-18T01:28:12.471Z,39.10
2019-02-18T01:30:58.723Z,39.10
2019-02-18T01:33:45.011Z,39.10
2019-02-18T01:36:31.100Z,39.10
2019-02-18T01:39:17.355Z,39.10
2019-02-18T01:42:03.700Z,39.00
2019-02-18T01:44:50.153Z,39.10
2019-02-18T01:47:36.397Z,39.10
2019-02-18T01:50:22.782Z,39.10
2019-02-18T01:53:08.859Z,39.10
2019-02-18T01:55:55.167Z,39.10
2019-02-18T01:58:41.731Z,39.20
2019-02-18T02:01:27.929Z,39.10
2019-02-18T02:04:14.387Z,39.10
2019-02-18T02:07:00.735Z,39.10
2019-02-18T02:09:47.156Z,39.10
2019-02-18T02:12:33.699Z,39.10
2019-02-18T02:15:23.243Z,39.10
2019-02-18T02:18:09.456Z,39.10
2019-02-18T02:20:55.941Z,39.10
2019-02-18T02:23:42.349Z,39.10
2019-02-18T02:26:28.919Z,39.20
2019-02-18T02:29:15.353Z,39.10
2019-02-18T02:32:02.132Z,39.20
2019-02-18T02:34:48.304Z,39.20
2019-02-18T02:37:34.684Z,39.10
2019-02-18T02:40:21.292Z,39.20
2019-02-18T02:43:07.504Z,39.20
2019-02-18T02:45:54.713Z,39.20
2019-02-18T02:48:41.235Z,39.20
2019-02-18T02:51:27.551Z,39.20
2019-02-18T02:54:14.012Z,39.10
2019-02-18T02:57:00.437Z,39.20
2019-02-18T02:59:46.872Z,39.20
2019-02-18T03:02:33.172Z,39.10
2019-02-18T03:05:19.907Z,39.10
2019-02-18T03:08:06.103Z,39.10
2019-02-18T03:10:52.453Z,39.10
2019-02-18T03:13:39.007Z,39.10
2019-02-18T03:16:25.478Z,39.10
2019-02-18T03:19:11.831Z,39.20
2019-02-18T03:21:58.191Z,39.10
2019-02-18T03:25:18.714Z,39.10
2019-02-18T03:28:34.815Z,39.10
2019-02-18T03:31:23.630Z,39.10
2019-02-18T03:34:14.469Z,39.10
2019-02-18T03:37:00.754Z,39.10
2019-02-18T03:39:47.011Z,39.10
2019-02-18T03:42:33.455Z,39.10
2019-02-18T03:45:19.372Z,39.00
2019-02-18T03:48:05.745Z,39.10
2019-02-18T03:50:52.832Z,39.00
2019-02-18T03:53:38.852Z,39.00
2019-02-18T03:56:24.879Z,39.00
2019-02-18T03:59:11.108Z,39.10
2019-02-18T04:01:57.844Z,39.00
2019-02-18T04:04:44.169Z,39.00
2019-02-18T04:07:31.192Z,39.00
2019-02-18T04:10:17.519Z,39.00
2019-02-18T04:13:03.571Z,39.00
2019-02-18T04:15:49.760Z,39.00
2019-02-18T04:18:36.133Z,39.00
2019-02-18T04:21:22.531Z,38.90
2019-02-18T04:24:08.544Z,38.90
2019-02-18T04:26:54.836Z,38.90
2019-02-18T04:29:41.379Z,38.90
2019-02-18T04:32:27.151Z,38.90
2019-02-18T04:35:13.440Z,39.00
2019-02-18T04:37:59.895Z,39.00
2019-02-18T04:40:46.263Z,38.90
2019-02-18T04:43:32.626Z,39.00
2019-02-18T04:46:18.985Z,38.90
2019-02-18T04:49:05.223Z,38.90
2019-02-18T04:51:51.100Z,38.90
2019-02-18T04:54:37.307Z,38.90
2019-02-18T04:57:23.863Z,38.90
2019-02-18T05:00:10.350Z,38.90
2019-02-18T05:02:56.706Z,38.80
2019-02-18T05:05:42.908Z,38.90
2019-02-18T05:08:30.327Z,38.80
2019-02-18T05:11:16.692Z,38.80
2019-02-18T05:14:03.047Z,38.80
2019-02-18T05:16:49.532Z,38.90
2019-02-18T05:19:35.324Z,38.80
2019-02-18T05:22:21.641Z,38.80
2019-02-18T05:25:08.679Z,38.80
2019-02-18T05:27:54.881Z,38.70
2019-02-18T05:30:41.298Z,38.80
2019-02-18T05:33:27.609Z,38.70
2019-02-18T05:36:13.887Z,38.60
2019-02-18T05:39:00.285Z,38.70
2019-02-18T05:41:46.646Z,38.70
2019-02-18T05:44:32.907Z,38.70
2019-02-18T05:47:19.040Z,38.70
2019-02-18T05:50:05.654Z,38.70
2019-02-18T05:52:52.232Z,38.60
2019-02-18T05:55:38.771Z,38.70
2019-02-18T05:58:25.172Z,38.60
2019-02-18T06:01:11.492Z,38.60
2019-02-18T06:04:00.107Z,38.60
2019-02-18T06:06:46.037Z,38.70
2019-02-18T06:09:33.700Z,38.70
2019-02-18T06:12:19.965Z,38.70
2019-02-18T06:15:07.992Z,38.70
2019-02-18T06:17:53.872Z,38.70
2019-02-18T06:20:39.890Z,38.70
2019-02-18T06:23:26.176Z,38.70
2019-02-18T06:26:12.403Z,38.60
2019-02-18T06:28:58.766Z,38.60
2019-02-18T06:31:45.125Z,38.60
2019-02-18T06:34:31.411Z,38.90
2019-02-18T06:37:17.348Z,38.60
2019-02-18T06:40:04.386Z,38.50
2019-02-18T06:42:50.551Z,38.50
2019-02-18T06:45:52.884Z,38.50
2019-02-18T06:48:45.171Z,38.40
2019-02-18T06:51:31.561Z,38.30
2019-02-18T06:54:17.834Z,38.20
2019-02-18T06:57:35.559Z,38.10
2019-02-18T07:00:25.859Z,38.30
2019-02-18T07:03:25.325Z,38.00
2019-02-18T07:06:29.187Z,37.70
2019-02-18T07:09:34.821Z,37.40
2019-02-18T07:12:43.015Z,37.10
2019-02-18T07:15:29.326Z,37.20
2019-02-18T07:18:15.604Z,37.60
2019-02-18T07:21:02.255Z,37.60
2019-02-18T07:23:48.053Z,37.70
2019-02-18T07:26:34.399Z,37.70
2019-02-18T07:29:20.821Z,37.70
2019-02-18T07:32:07.655Z,37.80
2019-02-18T07:34:54.095Z,37.90
2019-02-18T07:37:40.595Z,38.10
2019-02-18T07:40:26.803Z,38.20
2019-02-18T07:43:13.213Z,38.20
2019-02-18T07:45:59.661Z,38.30
2019-02-18T07:48:45.912Z,38.30
2019-02-18T07:51:32.344Z,38.40
2019-02-18T07:54:19.731Z,38.40
2019-02-18T07:57:06.006Z,38.40
2019-02-18T07:59:52.732Z,38.40
2019-02-18T08:02:38.935Z,38.40
2019-02-18T08:05:24.733Z,38.40
2019-02-18T08:08:11.138Z,38.40
2019-02-18T08:10:56.883Z,38.50
2019-02-18T08:13:43.187Z,38.50
2019-02-18T08:16:29.990Z,38.50
2019-02-18T08:19:15.879Z,38.60
2019-02-18T08:22:02.189Z,38.60
2019-02-18T08:24:49.666Z,38.80
2019-02-18T08:27:35.895Z,38.80
2019-02-18T08:30:22.116Z,38.90
2019-02-18T08:33:08.719Z,39.10
2019-02-18T08:35:54.890Z,38.80
2019-02-18T08:38:41.652Z,38.80
2019-02-18T08:41:27.825Z,38.40
2019-02-18T08:44:14.424Z,38.20
2019-02-18T08:47:00.727Z,37.80
2019-02-18T08:49:47.370Z,37.70
2019-02-18T08:52:33.718Z,37.60
2019-02-18T08:55:20.240Z,37.50
2019-02-18T08:58:06.771Z,37.40
2019-02-18T09:01:02.003Z,37.10
2019-02-18T09:03:40.703Z,36.90
2019-02-18T09:06:27.644Z,36.70
2019-02-18T09:09:13.786Z,36.50
2019-02-18T09:12:00.232Z,36.60
2019-02-18T09:14:46.508Z,36.50
2019-02-18T09:17:32.298Z,36.60
2019-02-18T09:20:18.720Z,36.40
2019-02-18T09:23:36.137Z,36.40
2019-02-18T09:26:22.309Z,36.30
2019-02-18T09:29:08.808Z,36.20
2019-02-18T09:31:55.034Z,36.20
2019-02-18T09:34:41.486Z,36.20
2019-02-18T09:37:27.888Z,36.10
2019-02-18T09:40:13.963Z,35.90
2019-02-18T09:43:00.238Z,35.70
2019-02-18T09:45:46.740Z,36.00
2019-02-18T09:48:33.115Z,36.00
2019-02-18T09:51:19.216Z,36.00
2019-02-18T09:54:05.503Z,36.30
2019-02-18T09:56:51.801Z,36.40
2019-02-18T09:59:38.202Z,36.50
2019-02-18T10:02:24.527Z,36.50
2019-02-18T10:05:10.727Z,36.70
2019-02-18T10:07:56.668Z,36.80
2019-02-18T10:10:42.972Z,36.90
2019-02-18T10:13:28.932Z,36.90
2019-02-18T10:16:15.391Z,36.90
2019-02-18T10:19:01.624Z,36.90
2019-02-18T10:21:47.439Z,36.90
2019-02-18T10:24:33.856Z,37.00
2019-02-18T10:27:20.159Z,37.10
2019-02-18T10:30:07.137Z,37.40
2019-02-18T10:32:53.263Z,37.40
2019-02-18T10:35:40.192Z,37.50
2019-02-18T10:38:26.231Z,37.50
2019-02-18T10:41:12.040Z,37.60
2019-02-18T10:43:58.373Z,37.50
2019-02-18T10:46:44.975Z,37.30
2019-02-18T10:49:31.412Z,37.50
2019-02-18T10:52:18.867Z,38.30
2019-02-18T10:55:05.946Z,37.40
2019-02-18T10:57:52.326Z,37.20
2019-02-18T11:00:38.587Z,37.40
2019-02-18T11:03:25.135Z,37.20
2019-02-18T11:06:11.330Z,37.10
2019-02-18T11:08:57.662Z,37.10
2019-02-18T11:11:44.131Z,37.00
2019-02-18T11:14:30.497Z,36.90
2019-02-18T11:17:16.906Z,37.70
2019-02-18T11:20:03.904Z,37.90
2019-02-18T11:22:50.207Z,38.20
2019-02-18T11:25:36.489Z,38.20
2019-02-18T11:28:22.863Z,38.40
2019-02-18T11:31:09.126Z,38.40
2019-02-18T11:33:55.204Z,38.50
2019-02-18T11:36:41.403Z,38.70
2019-02-18T11:39:27.689Z,38.60
2019-02-18T11:42:14.156Z,38.60
2019-02-18T11:45:00.361Z,38.80
2019-02-18T11:47:46.683Z,38.70
2019-02-18T11:50:33.147Z,38.70
2019-02-18T11:53:19.371Z,38.70
2019-02-18T11:56:05.618Z,38.70
2019-02-18T11:58:52.075Z,38.90
2019-02-18T12:01:38.357Z,38.90
2019-02-18T12:04:24.819Z,38.90
2019-02-18T12:07:11.672Z,39.00
2019-02-18T12:09:57.981Z,39.80
2019-02-18T12:12:44.147Z,39.10
2019-02-18T12:15:30.602Z,39.10
2019-02-18T12:18:16.923Z,39.30
2019-02-18T12:21:03.308Z,39.40
2019-02-18T12:23:49.467Z,39.50
2019-02-18T12:26:35.439Z,39.60
2019-02-18T12:29:26.201Z,39.70
2019-02-18T12:32:09.919Z,39.80
2019-02-18T12:34:56.125Z,39.80
2019-02-18T12:37:42.563Z,40.00
2019-02-18T12:40:28.739Z,39.90
2019-02-18T12:43:15.111Z,40.00
2019-02-18T12:46:01.421Z,40.00
2019-02-18T12:48:47.884Z,40.10
2019-02-18T12:51:34.150Z,40.20
2019-02-18T12:54:20.728Z,40.30
2019-02-18T12:57:07.032Z,40.40
2019-02-18T12:59:53.526Z,40.50
2019-02-18T13:02:44.216Z,40.50
2019-02-18T13:05:29.136Z,40.60
2019-02-18T13:08:15.364Z,40.60
2019-02-18T13:11:01.871Z,40.60
2019-02-18T13:13:48.174Z,40.70
2019-02-18T13:16:34.594Z,40.60
2019-02-18T13:19:21.060Z,40.70
2019-02-18T13:22:07.403Z,40.60
2019-02-18T13:24:53.756Z,40.60
2019-02-18T13:27:40.709Z,40.60
2019-02-18T13:30:26.943Z,40.60
2019-02-18T13:33:13.263Z,40.60
2019-02-18T13:35:59.740Z,40.60
2019-02-18T13:38:46.900Z,40.70
2019-02-18T13:41:33.179Z,40.80
2019-02-18T13:44:19.819Z,40.90
2019-02-18T13:47:06.119Z,41.00
2019-02-18T13:49:52.592Z,41.10
2019-02-18T13:52:38.856Z,41.20
2019-02-18T13:55:25.128Z,41.30
2019-02-18T13:58:11.571Z,41.30
2019-02-18T14:00:58.939Z,41.40
2019-02-18T14:03:45.293Z,41.40
2019-02-18T14:06:31.622Z,41.40
2019-02-18T14:09:18.593Z,41.50
2019-02-18T14:12:04.975Z,41.50
2019-02-18T14:14:51.352Z,41.60
2019-02-18T14:17:37.625Z,41.60
2019-02-18T14:20:23.983Z,41.60
2019-02-18T14:23:09.984Z,41.70
2019-02-18T14:25:56.243Z,41.80
2019-02-18T14:28:42.620Z,41.70
2019-02-18T14:31:29.091Z,41.80
2019-02-18T14:34:15.446Z,41.90
2019-02-18T14:37:01.715Z,41.90
2019-02-18T14:39:48.151Z,41.90
2019-02-18T14:42:34.351Z,42.00
2019-02-18T14:45:20.703Z,42.10
2019-02-18T14:48:08.344Z,42.10
2019-02-18T14:50:56.698Z,42.20
2019-02-18T14:53:42.232Z,42.20
2019-02-18T14:56:28.728Z,42.30
2019-02-18T14:59:14.839Z,42.30
2019-02-18T15:02:00.856Z,42.40
2019-02-18T15:04:47.205Z,42.40
2019-02-18T15:07:34.631Z,42.40
2019-02-18T15:10:21.444Z,42.60
2019-02-18T15:13:08.829Z,42.70
2019-02-18T15:15:54.713Z,42.60
2019-02-18T15:18:41.099Z,42.50
2019-02-18T15:21:27.711Z,42.10
2019-02-18T15:24:14.131Z,41.60
2019-02-18T15:27:00.682Z,41.40
2019-02-18T15:29:47.678Z,41.30
2019-02-18T15:32:33.829Z,41.40
2019-02-18T15:35:20.167Z,41.50
2019-02-18T15:38:06.611Z,41.80
2019-02-18T15:40:53.568Z,41.90
2019-02-18T15:43:39.952Z,41.90
2019-02-18T15:46:26.720Z,42.00
2019-02-18T15:49:12.939Z,42.20
2019-02-18T15:51:59.693Z,42.30
2019-02-18T15:54:46.068Z,42.40
2019-02-18T15:57:32.395Z,42.30
2019-02-18T16:00:20.455Z,42.40
2019-02-18T16:03:06.947Z,42.30
2019-02-18T16:05:53.099Z,42.30
2019-02-18T16:08:39.617Z,42.30
2019-02-18T16:11:25.974Z,42.20
2019-02-18T16:14:12.867Z,42.20
2019-02-18T16:16:59.293Z,42.10
2019-02-18T16:19:45.640Z,42.10
2019-02-18T16:22:31.953Z,42.00
2019-02-18T16:25:19.235Z,42.00
2019-02-18T16:28:05.332Z,41.90
2019-02-18T16:30:51.634Z,41.90
2019-02-18T16:33:37.755Z,41.80
2019-02-18T16:36:24.074Z,41.80
2019-02-18T16:39:10.980Z,41.70
2019-02-18T16:41:57.384Z,41.70
2019-02-18T16:44:43.623Z,41.80
2019-02-18T16:47:30.101Z,41.70
2019-02-18T16:50:16.623Z,41.70
2019-02-18T16:53:02.915Z,41.60
2019-02-18T16:55:50.212Z,41.60
2019-02-18T16:58:36.768Z,41.60
2019-02-18T17:01:23.016Z,41.50
2019-02-18T17:04:09.411Z,41.50
2019-02-18T17:06:55.925Z,41.50
2019-02-18T17:09:42.167Z,41.40
2019-02-18T17:12:28.414Z,41.40
2019-02-18T17:15:14.898Z,41.40
2019-02-18T17:18:01.027Z,41.40
2019-02-18T17:20:47.454Z,41.40
2019-02-18T17:23:33.899Z,41.30
2019-02-18T17:26:20.718Z,41.30
2019-02-18T17:29:07.008Z,41.30
2019-02-18T17:31:53.489Z,41.30
2019-02-18T17:34:39.619Z,41.20
2019-02-18T17:37:26.187Z,41.20
2019-02-18T17:40:12.500Z,41.20
2019-02-18T17:42:58.711Z,41.20
2019-02-18T17:45:45.091Z,41.20
2019-02-18T17:48:31.567Z,41.20
2019-02-18T17:51:18.003Z,41.20
2019-02-18T17:54:04.383Z,41.10
2019-02-18T17:56:51.123Z,41.10
2019-02-18T17:59:37.408Z,41.20
2019-02-18T18:02:23.952Z,41.10
2019-02-18T18:05:12.244Z,41.10
2019-02-18T18:07:58.485Z,41.10
2019-02-18T18:10:44.955Z,41.10
2019-02-18T18:13:31.314Z,41.00
2019-02-18T18:16:19.178Z,41.00
2019-02-18T18:19:09.293Z,41.00
2019-02-18T18:21:53.340Z,41.00
2019-02-18T18:24:39.599Z,41.00
2019-02-18T18:27:26.007Z,41.00
2019-02-18T18:30:13.098Z,41.00
2019-02-18T18:32:59.127Z,41.00
2019-02-18T18:35:45.456Z,41.00
2019-02-18T18:38:32.335Z,40.90
2019-02-18T18:41:18.492Z,40.90
2019-02-18T18:44:05.048Z,40.90
2019-02-18T18:46:51.303Z,40.90
2019-02-18T18:49:37.612Z,40.80
2019-02-18T18:52:23.947Z,40.80
2019-02-18T18:55:10.276Z,40.80
2019-02-18T18:57:56.558Z,40.80
2019-02-18T19:00:43.056Z,40.80
2019-02-18T19:03:29.283Z,40.80
2019-02-18T19:06:15.353Z,40.80
2019-02-18T19:09:02.791Z,40.70
2019-02-18T19:11:51.132Z,40.70
2019-02-18T19:14:37.430Z,40.70
2019-02-18T19:17:23.994Z,40.70
2019-02-18T19:20:11.628Z,40.70
2019-02-18T19:22:58.052Z,40.70
2019-02-18T19:25:44.570Z,40.60
2019-02-18T19:28:31.319Z,40.60
2019-02-18T19:31:17.601Z,40.60
2019-02-18T19:34:04.080Z,40.60
2019-02-18T19:36:50.342Z,40.60
2019-02-18T19:39:36.875Z,40.60
2019-02-18T19:42:23.309Z,40.60
2019-02-18T19:45:12.532Z,40.60
2019-02-18T19:47:58.904Z,40.60
2019-02-18T19:50:45.241Z,40.60
2019-02-18T19:53:31.505Z,40.60
2019-02-18T19:56:17.880Z,40.50
2019-02-18T19:59:03.699Z,40.60
2019-02-18T20:01:51.031Z,40.60
2019-02-18T20:04:37.263Z,40.60
2019-02-18T20:07:23.844Z,40.60
2019-02-18T20:10:10.293Z,40.60
2019-02-18T20:12:56.651Z,40.60
2019-02-18T20:15:43.051Z,40.60
2019-02-18T20:18:29.408Z,40.60
2019-02-18T20:21:15.756Z,40.60
2019-02-18T20:24:02.256Z,40.70
2019-02-18T20:26:48.562Z,40.60
2019-02-18T20:29:35.006Z,40.60
2019-02-18T20:32:21.459Z,40.60
2019-02-18T20:35:08.484Z,40.50
2019-02-18T20:37:54.793Z,40.50
2019-02-18T20:40:41.183Z,40.60
2019-02-18T20:43:27.356Z,40.50
2019-02-18T20:46:13.559Z,40.50
2019-02-18T20:48:59.787Z,40.50
2019-02-18T20:51:46.953Z,40.60
2019-02-18T20:54:33.551Z,40.50
2019-02-18T20:57:19.847Z,40.50
2019-02-18T21:00:12.949Z,40.50
2019-02-18T21:02:59.000Z,40.50
2019-02-18T21:05:45.363Z,40.50
2019-02-18T21:08:31.671Z,40.50
2019-02-18T21:11:17.899Z,40.50
2019-02-18T21:14:04.428Z,40.40
2019-02-18T21:16:50.647Z,40.40
2019-02-18T21:19:37.835Z,40.50
2019-02-18T21:22:24.295Z,40.50
2019-02-18T21:25:10.796Z,40.50
2019-02-18T21:27:56.741Z,40.40
2019-02-18T21:30:43.328Z,40.40
2019-02-18T21:33:29.742Z,40.40
2019-02-18T21:36:15.972Z,40.30
2019-02-18T21:39:05.217Z,40.30
2019-02-18T21:41:53.428Z,40.30
2019-02-18T21:44:39.658Z,40.20
2019-02-18T21:47:26.110Z,40.30
2019-02-18T21:50:12.411Z,40.30
2019-02-18T21:52:59.135Z,40.30
2019-02-18T21:55:45.594Z,40.30
2019-02-18T21:58:32.018Z,40.30
2019-02-18T22:01:19.188Z,40.20
2019-02-18T22:04:05.608Z,40.30
2019-02-18T22:06:51.932Z,40.20
2019-02-18T22:09:38.367Z,40.20
2019-02-18T22:12:24.776Z,40.20
2019-02-18T22:15:11.469Z,40.20
2019-02-18T22:17:57.580Z,40.20
2019-02-18T22:20:43.917Z,40.20
2019-02-18T22:23:30.288Z,40.20
2019-02-18T22:26:17.248Z,40.10
2019-02-18T22:29:03.689Z,40.10
2019-02-18T22:31:50.087Z,40.10
2019-02-18T22:34:36.509Z,40.10
2019-02-18T22:37:23.352Z,40.10
2019-02-18T22:40:10.773Z,40.10
2019-02-18T22:42:57.071Z,40.10
2019-02-18T22:45:43.435Z,40.10
2019-02-18T22:48:29.675Z,40.20
2019-02-18T22:51:15.882Z,40.10
2019-02-18T22:54:02.803Z,40.10
2019-02-18T22:56:49.050Z,40.10
2019-02-18T22:59:35.624Z,40.00
2019-02-18T23:02:22.071Z,40.00
2019-02-18T23:05:08.340Z,40.00
2019-02-18T23:07:54.615Z,40.00
2019-02-18T23:10:41.158Z,40.00
2019-02-18T23:13:27.410Z,40.00
2019-02-18T23:16:14.851Z,40.00
2019-02-18T23:19:01.319Z,40.00
2019-02-18T23:21:47.639Z,39.90
2019-02-18T23:24:33.943Z,39.90
2019-02-18T23:27:20.760Z,39.90
2019-02-18T23:30:07.111Z,39.90
2019-02-18T23:32:53.455Z,39.90
2019-02-18T23:35:39.580Z,39.90
2019-02-18T23:38:25.907Z,39.90
2019-02-18T23:41:12.356Z,39.90
2019-02-18T23:43:58.651Z,39.90
2019-02-18T23:46:45.980Z,39.80
2019-02-18T23:49:32.000Z,39.80
2019-02-18T23:52:18.110Z,39.80
2019-02-18T23:55:04.145Z,39.90
2019-02-18T23:57:50.665Z,39.90
